createdAt,value
2023-02-07T00:01:17.540Z,103973.91
2023-02-07T00:03:45.365Z,103967.94
2023-02-07T00:06:24.250Z,103968.75
2023-02-07T00:08:50.959Z,103963.66
2023-02-07T00:11:20.017Z,103968.84
2023-02-07T00:13:49.042Z,103974.94
2023-02-07T00:16:16.150Z,103962.03
2023-02-07T00:18:42.599Z,103962.94
2023-02-07T00:21:18.369Z,103955.22
2023-02-07T00:23:45.712Z,103963.03
2023-02-07T00:26:13.760Z,103963.06
2023-02-07T00:28:40.954Z,103962.25
2023-02-07T00:31:10.401Z,103963.06
2023-02-07T00:33:38.378Z,103969.97
2023-02-07T00:36:07.840Z,103969.16
2023-02-07T00:38:34.548Z,103966.63
2023-02-07T00:41:04.239Z,103961.47
2023-02-07T00:43:31.526Z,103974.44
2023-02-07T00:46:00.133Z,103968.44
2023-02-07T00:48:27.879Z,103962.41
2023-02-07T00:50:54.372Z,103963.31
2023-02-07T00:53:21.463Z,103965.00
2023-02-07T00:55:48.093Z,103963.31
2023-02-07T00:58:14.886Z,103959.88
2023-02-07T01:00:41.885Z,103961.56
2023-02-07T01:03:08.445Z,103952.13
2023-02-07T01:05:35.106Z,103959.06
2023-02-07T01:08:01.630Z,103967.69
2023-02-07T01:10:28.332Z,103957.41
2023-02-07T01:12:54.908Z,103961.66
2023-02-07T01:15:21.324Z,103961.69
2023-02-07T01:17:47.734Z,103964.25
2023-02-07T01:20:14.138Z,103956.50
2023-02-07T01:22:40.466Z,103956.53
2023-02-07T01:25:08.100Z,103947.06
2023-02-07T01:27:35.312Z,103954.84
2023-02-07T01:30:01.777Z,103966.91
2023-02-07T01:32:28.532Z,103973.81
2023-02-07T01:34:54.877Z,103969.50
2023-02-07T01:37:21.274Z,103970.38
2023-02-07T01:39:47.840Z,103969.53
2023-02-07T01:42:15.721Z,103972.91
2023-02-07T01:44:42.034Z,103967.78
2023-02-07T01:47:21.242Z,103965.19
2023-02-07T01:49:50.602Z,103967.78
2023-02-07T01:52:23.114Z,103962.66
2023-02-07T01:54:53.261Z,103965.25
2023-02-07T01:57:22.579Z,103963.53
2023-02-07T01:59:52.065Z,103966.13
2023-02-07T02:02:22.950Z,103967.00
2023-02-07T02:04:53.648Z,103976.50
2023-02-07T02:07:20.420Z,103970.47
2023-02-07T02:09:46.769Z,103966.19
2023-02-07T02:12:25.657Z,103967.03
2023-02-07T02:15:30.401Z,103967.88
2023-02-07T02:18:28.395Z,103969.56
2023-02-07T02:21:05.436Z,103975.63
2023-02-07T02:24:09.119Z,103980.81
2023-02-07T02:26:49.008Z,103973.06
2023-02-07T02:29:27.487Z,103980.84
2023-02-07T02:32:31.440Z,103980.84
2023-02-07T02:35:06.793Z,103988.59
2023-02-07T02:37:42.554Z,103985.19
2023-02-07T02:40:22.103Z,103986.06
2023-02-07T02:43:02.398Z,103988.63
2023-02-07T02:45:36.605Z,103980.91
2023-02-07T02:48:05.560Z,103986.13
2023-02-07T02:50:34.333Z,103980.09
2023-02-07T02:53:00.994Z,103979.28
2023-02-07T02:56:01.020Z,103979.25
2023-02-07T02:58:56.945Z,103990.47
2023-02-07T03:01:46.209Z,103994.81
2023-02-07T03:04:27.810Z,103987.06
2023-02-07T03:07:17.092Z,103997.38
2023-02-07T03:10:15.168Z,103993.06
2023-02-07T03:12:55.866Z,103978.41
2023-02-07T03:15:36.409Z,103983.59
2023-02-07T03:18:05.915Z,103981.88
2023-02-07T03:20:54.764Z,103978.44
2023-02-07T03:23:21.687Z,103976.72
2023-02-07T03:25:51.650Z,103973.28
2023-02-07T03:28:22.040Z,103974.13
2023-02-07T03:30:51.808Z,103966.38
2023-02-07T03:33:20.032Z,103965.50
2023-02-07T03:36:00.870Z,103974.13
2023-02-07T03:38:27.601Z,103976.75
2023-02-07T03:41:05.148Z,103975.00
2023-02-07T03:43:34.885Z,103984.50
2023-02-07T03:46:01.409Z,103972.44
2023-02-07T03:48:27.826Z,103967.28
2023-02-07T03:50:54.181Z,103966.44
2023-02-07T03:53:21.299Z,103972.44
2023-02-07T03:55:47.684Z,103965.56
2023-02-07T03:58:14.446Z,103977.63
2023-02-07T04:00:40.975Z,103977.63
2023-02-07T04:03:07.438Z,103964.72
2023-02-07T04:05:34.086Z,103962.13
2023-02-07T04:08:00.692Z,103961.28
2023-02-07T04:10:27.062Z,103960.44
2023-02-07T04:12:53.507Z,103969.06
2023-02-07T04:15:19.970Z,103975.91
2023-02-07T04:17:46.310Z,103968.19
2023-02-07T04:20:13.117Z,103976.81
2023-02-07T04:22:39.473Z,103971.66
2023-02-07T04:25:06.302Z,103958.75
2023-02-07T04:27:32.690Z,103954.44
2023-02-07T04:29:59.004Z,103958.75
2023-02-07T04:32:25.385Z,103958.78
2023-02-07T04:34:51.786Z,103952.75
2023-02-07T04:37:18.185Z,103944.16
2023-02-07T04:39:44.603Z,103951.91
2023-02-07T04:42:11.178Z,103942.41
2023-02-07T04:44:37.591Z,103950.19
2023-02-07T04:47:03.992Z,103951.03
2023-02-07T04:49:33.023Z,103951.91
2023-02-07T04:52:00.548Z,103949.31
2023-02-07T04:54:27.047Z,103941.56
2023-02-07T04:56:53.444Z,103939.84
2023-02-07T04:59:19.892Z,103942.44
2023-02-07T05:01:46.304Z,103937.28
2023-02-07T05:04:12.670Z,103941.59
2023-02-07T05:06:39.081Z,103934.72
2023-02-07T05:09:05.493Z,103922.66
2023-02-07T05:11:31.844Z,103929.56
2023-02-07T05:13:58.268Z,103933.84
2023-02-07T05:16:24.698Z,103930.41
2023-02-07T05:18:51.108Z,103938.16
2023-02-07T05:21:17.523Z,103928.69
2023-02-07T05:23:43.987Z,103933.84
2023-02-07T05:26:10.431Z,103937.28
2023-02-07T05:28:36.761Z,103937.31
2023-02-07T05:31:03.226Z,103936.47
2023-02-07T05:33:29.678Z,103942.44
2023-02-07T05:35:56.266Z,103946.78
2023-02-07T05:38:22.697Z,103957.09
2023-02-07T05:40:49.666Z,103957.09
2023-02-07T05:43:16.125Z,103970.84
2023-02-07T05:45:42.529Z,103963.94
2023-02-07T05:48:09.213Z,103976.88
2023-02-07T05:50:35.759Z,103982.91
2023-02-07T05:53:03.259Z,103983.75
2023-02-07T05:55:29.739Z,103991.47
2023-02-07T05:57:56.332Z,103991.47
2023-02-07T06:00:22.788Z,103998.38
2023-02-07T06:02:49.289Z,104001.81
2023-02-07T06:05:17.795Z,104005.25
2023-02-07T06:07:44.857Z,103998.38
2023-02-07T06:10:11.832Z,104002.69
2023-02-07T06:12:38.280Z,104003.53
2023-02-07T06:15:04.967Z,104004.38
2023-02-07T06:17:31.348Z,104002.66
2023-02-07T06:19:57.711Z,104002.66
2023-02-07T06:22:24.098Z,104001.81
2023-02-07T06:24:50.423Z,103999.25
2023-02-07T06:27:16.841Z,104007.00
2023-02-07T06:29:43.364Z,103997.53
2023-02-07T06:32:09.799Z,103998.38
2023-02-07T06:34:36.166Z,104003.53
2023-02-07T06:37:02.549Z,103999.25
2023-02-07T06:39:28.888Z,104003.53
2023-02-07T06:41:55.288Z,103985.47
2023-02-07T06:44:21.744Z,103997.53
2023-02-07T06:46:48.136Z,103994.06
2023-02-07T06:49:14.621Z,104000.97
2023-02-07T06:51:41.017Z,104005.28
2023-02-07T06:54:09.922Z,104012.13
2023-02-07T06:56:37.710Z,104020.75
2023-02-07T06:59:04.372Z,104008.69
2023-02-07T07:01:31.212Z,104018.19
2023-02-07T07:03:57.619Z,104019.88
2023-02-07T07:06:24.096Z,104026.75
2023-02-07T07:08:51.762Z,104032.78
2023-02-07T07:11:18.778Z,104039.66
2023-02-07T07:13:45.306Z,104034.50
2023-02-07T07:16:11.701Z,104039.69
2023-02-07T07:18:39.133Z,104037.94
2023-02-07T07:21:05.938Z,104033.66
2023-02-07T07:23:32.496Z,104037.97
2023-02-07T07:25:58.982Z,104040.53
2023-02-07T07:28:25.612Z,104045.72
2023-02-07T07:30:52.448Z,104042.25
2023-02-07T07:33:18.894Z,104052.56
2023-02-07T07:35:45.359Z,104048.28
2023-02-07T07:38:11.872Z,104050.00
2023-02-07T07:40:38.420Z,104050.84
2023-02-07T07:43:05.669Z,104056.00
2023-02-07T07:45:32.045Z,104056.00
2023-02-07T07:47:58.478Z,104049.09
2023-02-07T07:50:24.952Z,104051.72
2023-02-07T07:52:51.408Z,104062.03
2023-02-07T07:55:18.001Z,104063.72
2023-02-07T07:57:44.410Z,104068.03
2023-02-07T08:00:11.557Z,104078.38
2023-02-07T08:02:37.911Z,104068.91
2023-02-07T08:05:04.928Z,104060.31
2023-02-07T08:07:31.316Z,104063.72
2023-02-07T08:09:57.689Z,104064.63
2023-02-07T08:12:24.188Z,104062.03
2023-02-07T08:14:50.592Z,104066.34
2023-02-07T08:17:16.989Z,104062.03
2023-02-07T08:19:43.600Z,104061.16
2023-02-07T08:22:10.048Z,104060.31
2023-02-07T08:24:36.552Z,104055.13
2023-02-07T08:27:03.919Z,104054.28
2023-02-07T08:29:30.361Z,104064.59
2023-02-07T08:31:56.780Z,104050.84
2023-02-07T08:34:26.194Z,104058.59
2023-02-07T08:36:53.174Z,104053.44
2023-02-07T08:39:19.751Z,104061.16
2023-02-07T08:41:50.540Z,104050.84
2023-02-07T08:44:17.371Z,104043.09
2023-02-07T08:46:44.060Z,104043.97
2023-02-07T08:49:11.214Z,104046.56
2023-02-07T08:51:37.651Z,104054.31
2023-02-07T08:54:07.325Z,104057.75
2023-02-07T08:56:34.964Z,104063.78
2023-02-07T08:59:01.408Z,104056.91
2023-02-07T09:01:28.427Z,104057.75
2023-02-07T09:03:56.975Z,104052.59
2023-02-07T09:06:30.013Z,104057.75
2023-02-07T09:08:56.666Z,104045.69
2023-02-07T09:11:23.919Z,104064.63
2023-02-07T09:13:50.342Z,104056.88
2023-02-07T09:16:16.858Z,104051.72
2023-02-07T09:18:45.069Z,104050.00
2023-02-07T09:21:12.224Z,104054.28
2023-02-07T09:23:38.910Z,104050.84
2023-02-07T09:26:10.690Z,104049.13
2023-02-07T09:28:37.875Z,104047.38
2023-02-07T09:31:12.540Z,104050.81
2023-02-07T09:33:39.529Z,104043.91
2023-02-07T09:36:06.580Z,104039.59
2023-02-07T09:38:33.049Z,104030.97
2023-02-07T09:40:59.925Z,104028.38
2023-02-07T09:43:47.424Z,104036.97
2023-02-07T09:46:29.938Z,104038.66
2023-02-07T09:49:05.789Z,104036.09
2023-02-07T09:51:36.321Z,104029.22
2023-02-07T09:54:22.911Z,104024.91
2023-02-07T09:56:56.816Z,104030.88
2023-02-07T09:59:45.364Z,104029.19
2023-02-07T10:02:27.337Z,104029.16
2023-02-07T10:04:58.659Z,104036.91
2023-02-07T10:07:25.149Z,104035.19
2023-02-07T10:09:51.604Z,104028.28
2023-02-07T10:12:28.179Z,104032.56
2023-02-07T10:15:08.127Z,104022.19
2023-02-07T10:17:42.438Z,104028.22
2023-02-07T10:20:35.196Z,104029.03
2023-02-07T10:23:40.038Z,104031.63
2023-02-07T10:26:37.785Z,104035.00
2023-02-07T10:29:18.041Z,104033.22
2023-02-07T10:31:48.116Z,104042.69
2023-02-07T10:34:31.051Z,104040.06
2023-02-07T10:37:01.691Z,104032.28
2023-02-07T10:39:38.779Z,104035.69
2023-02-07T10:42:05.796Z,104027.03
2023-02-07T10:44:32.242Z,104036.44
2023-02-07T10:47:01.815Z,104038.94
2023-02-07T10:49:31.123Z,104034.50
2023-02-07T10:52:02.600Z,104036.16
2023-02-07T10:54:29.553Z,104037.81
2023-02-07T10:57:02.469Z,104041.13
2023-02-07T10:59:40.639Z,104047.13
2023-02-07T11:02:29.164Z,104040.03
2023-02-07T11:05:21.921Z,104040.81
2023-02-07T11:08:18.905Z,104035.47
2023-02-07T11:10:46.747Z,104029.25
2023-02-07T11:13:20.025Z,104033.47
2023-02-07T11:15:51.832Z,104030.72
2023-02-07T11:18:44.498Z,104023.63
2023-02-07T11:21:26.210Z,104030.28
2023-02-07T11:23:55.943Z,104025.81
2023-02-07T11:26:23.875Z,104013.53
2023-02-07T11:29:01.845Z,104019.44
2023-02-07T11:31:31.712Z,104019.31
2023-02-07T11:34:27.132Z,104022.53
2023-02-07T11:36:53.801Z,104018.00
2023-02-07T11:39:23.015Z,104004.84
2023-02-07T11:42:00.371Z,104005.41
2023-02-07T11:44:30.678Z,104006.81
2023-02-07T11:47:03.288Z,104004.13
2023-02-07T11:49:42.148Z,104003.91
2023-02-07T11:52:09.382Z,103997.78
2023-02-07T11:54:38.838Z,103993.16
2023-02-07T11:57:14.638Z,103985.94
2023-02-07T11:59:49.222Z,103992.59
2023-02-07T12:02:21.400Z,103994.94
2023-02-07T12:04:48.051Z,103988.72
2023-02-07T12:07:34.419Z,103985.75
2023-02-07T12:10:04.316Z,103982.06
2023-02-07T12:12:39.211Z,103985.97
2023-02-07T12:15:24.231Z,103984.94
2023-02-07T12:18:24.597Z,103980.31
2023-02-07T12:20:58.481Z,103971.13
2023-02-07T12:23:42.293Z,103969.22
2023-02-07T12:26:22.808Z,103966.50
2023-02-07T12:29:22.146Z,103960.97
2023-02-07T12:31:57.662Z,103963.41
2023-02-07T12:34:33.177Z,103967.47
2023-02-07T12:37:18.774Z,103961.41
2023-02-07T12:40:10.297Z,103968.88
2023-02-07T12:42:47.140Z,103970.44
2023-02-07T12:45:23.181Z,103974.66
2023-02-07T12:48:06.701Z,103978.63
2023-02-07T12:50:48.284Z,103974.22
2023-02-07T12:53:26.778Z,103976.72
2023-02-07T12:56:02.689Z,103971.34
2023-02-07T12:58:44.881Z,103972.00
2023-02-07T13:01:24.360Z,103968.34
2023-02-07T13:04:06.007Z,103956.06
2023-02-07T13:07:12.495Z,103959.25
2023-02-07T13:10:15.716Z,103954.56
2023-02-07T13:12:44.826Z,103954.13
2023-02-07T13:15:33.490Z,103953.38
2023-02-07T13:18:03.079Z,103956.09
2023-02-07T13:20:48.797Z,103950.81
2023-02-07T13:23:21.976Z,103957.72
2023-02-07T13:25:53.117Z,103950.63
2023-02-07T13:28:32.975Z,103949.19
2023-02-07T13:31:00.206Z,103946.28
2023-02-07T13:33:32.613Z,103950.56
2023-02-07T13:36:05.774Z,103951.47
2023-02-07T13:38:59.320Z,103948.72
2023-02-07T13:41:37.803Z,103937.25
2023-02-07T13:44:24.782Z,103938.03
2023-02-07T13:47:11.409Z,103937.34
2023-02-07T13:49:49.704Z,103926.28
2023-02-07T13:52:38.408Z,103931.28
2023-02-07T13:55:20.177Z,103930.44
2023-02-07T13:58:05.245Z,103923.63
2023-02-07T14:00:56.416Z,103930.31
2023-02-07T14:03:30.152Z,103929.69
2023-02-07T14:06:22.129Z,103922.78
2023-02-07T14:09:19.276Z,103919.06
2023-02-07T14:11:56.690Z,103914.03
2023-02-07T14:14:28.703Z,103912.63
2023-02-07T14:17:01.717Z,103910.84
2023-02-07T14:19:40.325Z,103914.44
2023-02-07T14:22:16.042Z,103918.09
2023-02-07T14:25:17.286Z,103907.84
2023-02-07T14:28:07.692Z,103914.34
2023-02-07T14:30:38.282Z,103922.34
2023-02-07T14:33:04.863Z,103927.81
2023-02-07T14:35:34.903Z,103928.81
2023-02-07T14:38:07.449Z,103929.88
2023-02-07T14:40:43.032Z,103935.31
2023-02-07T14:43:12.424Z,103933.06
2023-02-07T14:46:01.679Z,103941.75
2023-02-07T14:48:40.777Z,103932.38
2023-02-07T14:51:14.166Z,103936.19
2023-02-07T14:53:42.521Z,103928.50
2023-02-07T14:56:28.719Z,103933.03
2023-02-07T14:58:58.214Z,103932.31
2023-02-07T15:01:25.188Z,103936.00
2023-02-07T15:04:06.399Z,103932.59
2023-02-07T15:06:44.653Z,103937.16
2023-02-07T15:09:27.841Z,103930.25
2023-02-07T15:12:10.771Z,103930.19
2023-02-07T15:14:42.422Z,103927.03
2023-02-07T15:17:10.914Z,103926.22
2023-02-07T15:19:40.812Z,103927.28
2023-02-07T15:22:24.006Z,103927.47
2023-02-07T15:24:55.131Z,103922.44
2023-02-07T15:27:29.299Z,103918.03
2023-02-07T15:30:08.304Z,103919.81
2023-02-07T15:32:42.609Z,103921.78
2023-02-07T15:35:21.441Z,103918.38
2023-02-07T15:37:48.911Z,103914.16
2023-02-07T15:40:19.514Z,103911.66
2023-02-07T15:42:59.265Z,103912.59
2023-02-07T15:45:28.853Z,103916.19
2023-02-07T15:48:03.794Z,103907.66
2023-02-07T15:50:31.093Z,103913.16
2023-02-07T15:53:00.461Z,103917.59
2023-02-07T15:55:35.088Z,103912.69
2023-02-07T15:58:02.916Z,103917.13
2023-02-07T16:00:32.235Z,103915.59
2023-02-07T16:03:15.680Z,103913.09
2023-02-07T16:05:42.192Z,103912.38
2023-02-07T16:08:39.512Z,103912.47
2023-02-07T16:11:15.288Z,103923.78
2023-02-07T16:13:52.036Z,103917.03
2023-02-07T16:16:22.743Z,103920.59
2023-02-07T16:18:49.205Z,103916.44
2023-02-07T16:21:26.361Z,103928.66
2023-02-07T16:24:00.834Z,103930.47
2023-02-07T16:26:30.084Z,103917.59
2023-02-07T16:28:56.708Z,103920.41
2023-02-07T16:31:23.244Z,103924.00
2023-02-07T16:33:49.666Z,103916.31
2023-02-07T16:36:18.180Z,103920.72
2023-02-07T16:38:46.153Z,103924.28
2023-02-07T16:41:24.790Z,103929.63
2023-02-07T16:43:51.262Z,103920.31
2023-02-07T16:46:17.660Z,103923.91
2023-02-07T16:48:44.257Z,103919.72
2023-02-07T16:51:10.638Z,103926.78
2023-02-07T16:53:37.077Z,103934.72
2023-02-07T16:56:04.066Z,103931.38
2023-02-07T16:58:32.080Z,103928.84
2023-02-07T17:00:58.510Z,103932.50
2023-02-07T17:03:24.988Z,103938.66
2023-02-07T17:05:53.929Z,103936.06
2023-02-07T17:08:30.252Z,103943.97
2023-02-07T17:11:00.937Z,103933.72
2023-02-07T17:13:27.894Z,103939.03
2023-02-07T17:15:54.818Z,103937.28
2023-02-07T17:18:21.655Z,103935.66
2023-02-07T17:20:48.187Z,103935.72
2023-02-07T17:23:16.795Z,103934.94
2023-02-07T17:25:44.079Z,103948.91
2023-02-07T17:28:16.342Z,103934.34
2023-02-07T17:30:43.342Z,103937.94
2023-02-07T17:33:10.632Z,103938.09
2023-02-07T17:35:38.187Z,103941.63
2023-02-07T17:38:04.936Z,103950.41
2023-02-07T17:40:37.847Z,103949.59
2023-02-07T17:43:05.449Z,103947.13
2023-02-07T17:45:35.008Z,103946.28
2023-02-07T17:48:01.656Z,103946.34
2023-02-07T17:50:34.325Z,103947.22
2023-02-07T17:53:01.527Z,103946.47
2023-02-07T17:55:30.035Z,103950.81
2023-02-07T17:57:57.065Z,103955.22
2023-02-07T18:00:26.997Z,103961.38
2023-02-07T18:02:53.573Z,103958.91
2023-02-07T18:05:20.877Z,103956.41
2023-02-07T18:07:48.759Z,103958.19
2023-02-07T18:10:28.741Z,103963.44
2023-02-07T18:12:55.380Z,103968.69
2023-02-07T18:15:22.255Z,103973.09
2023-02-07T18:17:50.534Z,103967.09
2023-02-07T18:20:29.253Z,103973.13
2023-02-07T18:22:58.240Z,103973.19
2023-02-07T18:25:31.647Z,103973.16
2023-02-07T18:27:58.698Z,103971.44
2023-02-07T18:30:27.581Z,103967.19
2023-02-07T18:32:54.571Z,103975.00
2023-02-07T18:35:21.980Z,103969.00
2023-02-07T18:37:51.232Z,103969.88
2023-02-07T18:40:17.956Z,103962.13
2023-02-07T18:42:44.676Z,103966.47
2023-02-07T18:45:13.497Z,103964.78
2023-02-07T18:47:41.164Z,103967.38
2023-02-07T18:50:10.045Z,103976.94
2023-02-07T18:52:36.517Z,103970.06
2023-02-07T18:55:03.687Z,103967.47
2023-02-07T18:57:30.454Z,103969.22
2023-02-07T18:59:56.922Z,103965.81
2023-02-07T19:02:23.989Z,103965.00
2023-02-07T19:04:50.851Z,103959.81
2023-02-07T19:07:17.276Z,103958.94
2023-02-07T19:09:43.707Z,103955.50
2023-02-07T19:12:10.949Z,103961.53
2023-02-07T19:14:37.534Z,103955.50
2023-02-07T19:17:03.957Z,103962.41
2023-02-07T19:19:36.109Z,103965.00
2023-02-07T19:22:02.840Z,103957.28
2023-02-07T19:24:29.365Z,103955.56
2023-02-07T19:26:57.936Z,103953.81
2023-02-07T19:29:28.719Z,103952.97
2023-02-07T19:32:00.804Z,103942.56
2023-02-07T19:34:29.474Z,103951.22
2023-02-07T19:36:56.957Z,103945.19
2023-02-07T19:39:23.576Z,103945.22
2023-02-07T19:41:50.400Z,103942.66
2023-02-07T19:44:19.633Z,103938.38
2023-02-07T19:46:46.247Z,103937.53
2023-02-07T19:49:14.156Z,103936.69
2023-02-07T19:51:41.424Z,103941.88
2023-02-07T19:54:08.276Z,103933.31
2023-02-07T19:56:36.507Z,103926.44
2023-02-07T19:59:06.319Z,103927.28
2023-02-07T20:01:34.528Z,103929.03
2023-02-07T20:04:01.424Z,103931.66
2023-02-07T20:06:31.329Z,103930.78
2023-02-07T20:08:59.292Z,103927.34
2023-02-07T20:11:26.417Z,103928.22
2023-02-07T20:13:55.860Z,103933.41
2023-02-07T20:16:24.561Z,103929.97
2023-02-07T20:18:52.002Z,103934.31
2023-02-07T20:21:21.332Z,103933.50
2023-02-07T20:23:50.296Z,103934.34
2023-02-07T20:26:22.225Z,103924.03
2023-02-07T20:28:50.061Z,103927.47
2023-02-07T20:31:19.673Z,103925.78
2023-02-07T20:33:46.352Z,103923.22
2023-02-07T20:36:15.278Z,103922.38
2023-02-07T20:38:44.839Z,103921.56
2023-02-07T20:41:15.368Z,103924.16
2023-02-07T20:43:43.475Z,103928.47
2023-02-07T20:46:13.748Z,103929.31
2023-02-07T20:48:41.340Z,103934.47
2023-02-07T20:51:12.276Z,103931.91
2023-02-07T20:53:40.010Z,103939.66
2023-02-07T20:56:12.426Z,103931.91
2023-02-07T20:58:39.285Z,103931.91
2023-02-07T21:01:10.366Z,103925.00
2023-02-07T21:03:37.332Z,103931.91
2023-02-07T21:06:04.719Z,103929.31
2023-02-07T21:08:31.525Z,103931.94
2023-02-07T21:10:58.960Z,103921.59
2023-02-07T21:13:25.604Z,103924.16
2023-02-07T21:16:02.543Z,103929.31
2023-02-07T21:18:30.391Z,103912.94
2023-02-07T21:20:57.105Z,103925.84
2023-02-07T21:23:23.593Z,103924.13
2023-02-07T21:25:50.552Z,103927.56
2023-02-07T21:28:16.997Z,103923.22
2023-02-07T21:30:43.529Z,103918.94
2023-02-07T21:33:10.164Z,103917.16
2023-02-07T21:35:36.500Z,103913.75
2023-02-07T21:38:02.961Z,103915.50
2023-02-07T21:40:29.354Z,103909.50
2023-02-07T21:42:57.160Z,103907.75
2023-02-07T21:45:23.682Z,103894.91
2023-02-07T21:47:50.173Z,103899.19
2023-02-07T21:50:16.684Z,103902.66
2023-02-07T21:52:43.141Z,103902.66
2023-02-07T21:55:09.531Z,103899.25
2023-02-07T21:57:35.899Z,103901.00
2023-02-07T22:00:02.328Z,103897.53
2023-02-07T22:02:28.954Z,103894.09
2023-02-07T22:04:55.460Z,103899.28
2023-02-07T22:07:21.790Z,103897.59
2023-02-07T22:09:50.387Z,103903.59
2023-02-07T22:12:16.905Z,103897.56
2023-02-07T22:14:43.273Z,103889.84
2023-02-07T22:17:10.152Z,103889.00
2023-02-07T22:19:37.121Z,103891.63
2023-02-07T22:22:03.601Z,103888.19
2023-02-07T22:24:32.101Z,103894.19
2023-02-07T22:26:58.617Z,103897.63
2023-02-07T22:29:25.049Z,103897.66
2023-02-07T22:31:51.549Z,103916.59
2023-02-07T22:34:18.062Z,103901.97
2023-02-07T22:36:45.153Z,103904.53
2023-02-07T22:39:14.088Z,103908.00
2023-02-07T22:41:40.622Z,103911.44
2023-02-07T22:44:06.958Z,103911.44
2023-02-07T22:46:33.826Z,103913.19
2023-02-07T22:49:00.185Z,103899.44
2023-02-07T22:51:29.519Z,103908.88
2023-02-07T22:53:58.192Z,103900.25
2023-02-07T22:56:25.590Z,103902.81
2023-02-07T22:58:53.221Z,103894.22
2023-02-07T23:01:21.370Z,103899.38
2023-02-07T23:03:48.241Z,103898.53
2023-02-07T23:06:15.248Z,103894.22
2023-02-07T23:08:41.813Z,103902.84
2023-02-07T23:11:10.804Z,103905.44
2023-02-07T23:13:37.223Z,103909.75
2023-02-07T23:16:03.903Z,103905.44
2023-02-07T23:18:30.289Z,103897.72
2023-02-07T23:20:56.783Z,103904.63
2023-02-07T23:23:23.665Z,103907.19
2023-02-07T23:25:50.040Z,103910.63
2023-02-07T23:28:16.464Z,103906.31
2023-02-07T23:30:43.313Z,103891.72
2023-02-07T23:33:10.208Z,103899.47
2023-02-07T23:35:37.109Z,103905.47
2023-02-07T23:38:03.616Z,103909.75
2023-02-07T23:40:30.137Z,103907.19
2023-02-07T23:42:56.504Z,103904.59
2023-02-07T23:45:23.081Z,103898.59
2023-02-07T23:47:49.443Z,103906.31
2023-02-07T23:50:15.873Z,103900.31
2023-02-07T23:52:42.260Z,103905.47
2023-02-07T23:55:08.626Z,103902.03
2023-02-07T23:57:35.024Z,103906.34
